Sainte Genevieve, Missouri
Current Conditions -  °F | °C
As of 12:55 PM on Thursday 23 Oct 2014 (Local Time) from KSAR Reporting Station
Clear Clear  
Wind Chill: 14°   Ceiling: Unl
Heat Index: 14°   Visibility: 10mi
Dew Point:   Wind: 7mph
Humidity: 60%   Direction: 210°SSW
Pressure: 30.2"   Gusts: NA
Location:  37.98°N, 90.04°W
Report Text: KSAR 231755Z AUTO 21006KT 10SM CLR 14/07 A3020 RMK AO2 T01430066 10150 20020
Loading
Personal Weather Stations






























Interactive Weather Map
Tropical Storm Tracking
New forecast layout! Learn more

10-Day Weather Forecast

Advertisements
Track Severe Weather on mobile